sensor_id;sensor_type;location;lat;lon;timestamp;P1;durP1;ratioP1;P2;durP2;ratioP2
66761;SDS011;53672;48.176;16.338;2023-04-06T00:03:37;9.68;;;4.90;;
66761;SDS011;53672;48.176;16.338;2023-04-06T00:08:39;11.05;;;4.75;;
66761;SDS011;53672;48.176;16.338;2023-04-06T00:13:39;9.67;;;4.50;;
66761;SDS011;53672;48.176;16.338;2023-04-06T00:18:40;12.57;;;4.70;;
66761;SDS011;53672;48.176;16.338;2023-04-06T00:23:42;8.20;;;4.57;;
66761;SDS011;53672;48.176;16.338;2023-04-06T00:28:42;8.93;;;4.45;;
66761;SDS011;53672;48.176;16.338;2023-04-06T00:33:42;11.20;;;4.77;;
66761;SDS011;53672;48.176;16.338;2023-04-06T00:38:44;10.80;;;4.70;;
66761;SDS011;53672;48.176;16.338;2023-04-06T00:43:45;12.63;;;4.70;;
66761;SDS011;53672;48.176;16.338;2023-04-06T00:48:45;11.87;;;4.93;;
66761;SDS011;53672;48.176;16.338;2023-04-06T00:53:47;9.23;;;4.43;;
66761;SDS011;53672;48.176;16.338;2023-04-06T00:58:47;10.18;;;4.93;;
66761;SDS011;53672;48.176;16.338;2023-04-06T01:03:48;10.97;;;4.67;;
66761;SDS011;53672;48.176;16.338;2023-04-06T01:08:50;9.53;;;4.47;;
66761;SDS011;53672;48.176;16.338;2023-04-06T01:13:50;11.48;;;4.60;;
66761;SDS011;53672;48.176;16.338;2023-04-06T01:18:52;10.53;;;4.57;;
66761;SDS011;53672;48.176;16.338;2023-04-06T01:23:54;9.57;;;4.40;;
66761;SDS011;53672;48.176;16.338;2023-04-06T01:28:54;9.45;;;4.45;;
66761;SDS011;53672;48.176;16.338;2023-04-06T01:33:55;12.23;;;4.77;;
66761;SDS011;53672;48.176;16.338;2023-04-06T01:38:57;9.93;;;4.60;;
66761;SDS011;53672;48.176;16.338;2023-04-06T01:43:57;11.63;;;5.43;;
66761;SDS011;53672;48.176;16.338;2023-04-06T01:48:58;9.27;;;4.23;;
66761;SDS011;53672;48.176;16.338;2023-04-06T01:54:00;11.90;;;4.83;;
66761;SDS011;53672;48.176;16.338;2023-04-06T01:59:00;12.00;;;4.53;;
66761;SDS011;53672;48.176;16.338;2023-04-06T02:04:01;9.60;;;4.17;;
66761;SDS011;53672;48.176;16.338;2023-04-06T02:09:02;9.60;;;4.77;;
66761;SDS011;53672;48.176;16.338;2023-04-06T02:14:03;11.73;;;4.88;;
66761;SDS011;53672;48.176;16.338;2023-04-06T02:19:04;9.60;;;4.45;;
66761;SDS011;53672;48.176;16.338;2023-04-06T02:24:06;10.93;;;4.43;;
66761;SDS011;53672;48.176;16.338;2023-04-06T02:29:07;11.50;;;4.65;;
66761;SDS011;53672;48.176;16.338;2023-04-06T02:34:07;8.83;;;4.30;;
66761;SDS011;53672;48.176;16.338;2023-04-06T02:39:09;9.67;;;4.27;;
66761;SDS011;53672;48.176;16.338;2023-04-06T02:44:09;10.57;;;4.20;;
66761;SDS011;53672;48.176;16.338;2023-04-06T02:49:10;9.50;;;4.37;;
66761;SDS011;53672;48.176;16.338;2023-04-06T02:54:12;9.93;;;4.88;;
66761;SDS011;53672;48.176;16.338;2023-04-06T02:59:12;11.37;;;4.60;;
66761;SDS011;53672;48.176;16.338;2023-04-06T03:04:13;11.37;;;4.43;;
66761;SDS011;53672;48.176;16.338;2023-04-06T03:09:14;11.10;;;4.70;;
66761;SDS011;53672;48.176;16.338;2023-04-06T03:14:15;11.45;;;4.80;;
66761;SDS011;53672;48.176;16.338;2023-04-06T03:19:15;9.97;;;4.73;;
66761;SDS011;53672;48.176;16.338;2023-04-06T03:24:17;9.60;;;4.10;;
66761;SDS011;53672;48.176;16.338;2023-04-06T03:29:18;11.75;;;5.10;;
66761;SDS011;53672;48.176;16.338;2023-04-06T03:34:18;11.27;;;4.63;;
66761;SDS011;53672;48.176;16.338;2023-04-06T03:39:20;12.67;;;5.30;;
66761;SDS011;53672;48.176;16.338;2023-04-06T03:44:20;10.43;;;5.10;;
66761;SDS011;53672;48.176;16.338;2023-04-06T03:49:21;10.83;;;4.67;;
66761;SDS011;53672;48.176;16.338;2023-04-06T03:54:23;12.03;;;4.90;;
66761;SDS011;53672;48.176;16.338;2023-04-06T03:59:23;10.88;;;4.47;;
66761;SDS011;53672;48.176;16.338;2023-04-06T04:04:24;9.80;;;4.60;;
66761;SDS011;53672;48.176;16.338;2023-04-06T04:09:25;10.13;;;4.40;;
66761;SDS011;53672;48.176;16.338;2023-04-06T04:14:26;12.33;;;5.13;;
66761;SDS011;53672;48.176;16.338;2023-04-06T04:19:26;8.40;;;4.50;;
66761;SDS011;53672;48.176;16.338;2023-04-06T04:24:28;11.13;;;4.40;;
66761;SDS011;53672;48.176;16.338;2023-04-06T04:29:29;9.70;;;4.60;;
66761;SDS011;53672;48.176;16.338;2023-04-06T04:34:29;11.90;;;4.63;;
66761;SDS011;53672;48.176;16.338;2023-04-06T04:39:31;9.77;;;4.23;;
66761;SDS011;53672;48.176;16.338;2023-04-06T04:44:32;10.98;;;4.80;;
66761;SDS011;53672;48.176;16.338;2023-04-06T04:49:32;11.50;;;4.57;;
66761;SDS011;53672;48.176;16.338;2023-04-06T04:54:34;13.70;;;4.83;;
66761;SDS011;53672;48.176;16.338;2023-04-06T04:59:34;15.52;;;4.93;;
66761;SDS011;53672;48.176;16.338;2023-04-06T05:04:35;12.87;;;5.93;;
66761;SDS011;53672;48.176;16.338;2023-04-06T05:09:37;11.30;;;5.17;;
66761;SDS011;53672;48.176;16.338;2023-04-06T05:14:37;10.73;;;5.13;;
66761;SDS011;53672;48.176;16.338;2023-04-06T05:19:38;9.60;;;4.63;;
66761;SDS011;53672;48.176;16.338;2023-04-06T05:24:40;10.47;;;5.00;;
66761;SDS011;53672;48.176;16.338;2023-04-06T05:29:40;12.35;;;4.90;;
66761;SDS011;53672;48.176;16.338;2023-04-06T05:34:41;12.10;;;5.30;;
66761;SDS011;53672;48.176;16.338;2023-04-06T05:39:43;12.23;;;5.33;;
66761;SDS011;53672;48.176;16.338;2023-04-06T05:44:43;10.32;;;4.80;;
66761;SDS011;53672;48.176;16.338;2023-04-06T05:49:44;10.50;;;4.50;;
66761;SDS011;53672;48.176;16.338;2023-04-06T05:54:46;12.23;;;5.40;;
66761;SDS011;53672;48.176;16.338;2023-04-06T05:59:46;8.95;;;4.55;;
66761;SDS011;53672;48.176;16.338;2023-04-06T06:04:47;9.82;;;4.32;;
66761;SDS011;53672;48.176;16.338;2023-04-06T06:09:48;13.10;;;5.13;;
66761;SDS011;53672;48.176;16.338;2023-04-06T06:14:49;11.80;;;5.07;;
66761;SDS011;53672;48.176;16.338;2023-04-06T06:19:49;10.63;;;5.15;;
66761;SDS011;53672;48.176;16.338;2023-04-06T06:24:51;11.75;;;5.45;;
66761;SDS011;53672;48.176;16.338;2023-04-06T06:29:52;14.13;;;5.33;;
66761;SDS011;53672;48.176;16.338;2023-04-06T06:34:52;12.80;;;6.00;;
66761;SDS011;53672;48.176;16.338;2023-04-06T06:39:54;14.33;;;5.57;;
66761;SDS011;53672;48.176;16.338;2023-04-06T06:44:54;10.70;;;5.18;;
66761;SDS011;53672;48.176;16.338;2023-04-06T06:49:55;10.47;;;5.80;;
66761;SDS011;53672;48.176;16.338;2023-04-06T06:54:57;12.50;;;5.80;;
66761;SDS011;53672;48.176;16.338;2023-04-06T06:59:57;11.00;;;5.43;;
66761;SDS011;53672;48.176;16.338;2023-04-06T07:04:58;12.50;;;5.60;;
66761;SDS011;53672;48.176;16.338;2023-04-06T07:10:00;13.70;;;5.83;;
66761;SDS011;53672;48.176;16.338;2023-04-06T07:15:00;12.02;;;6.18;;
66761;SDS011;53672;48.176;16.338;2023-04-06T07:20:01;13.03;;;5.80;;
66761;SDS011;53672;48.176;16.338;2023-04-06T07:25:03;13.67;;;5.93;;
66761;SDS011;53672;48.176;16.338;2023-04-06T07:30:04;12.02;;;5.97;;
66761;SDS011;53672;48.176;16.338;2023-04-06T07:35:06;9.82;;;5.25;;
66761;SDS011;53672;48.176;16.338;2023-04-06T07:40:09;11.27;;;5.30;;
66761;SDS011;53672;48.176;16.338;2023-04-06T07:45:10;11.33;;;5.37;;
66761;SDS011;53672;48.176;16.338;2023-04-06T07:50:11;13.40;;;5.53;;
66761;SDS011;53672;48.176;16.338;2023-04-06T07:55:13;14.50;;;5.27;;
66761;SDS011;53672;48.176;16.338;2023-04-06T08:00:14;11.27;;;4.80;;
66761;SDS011;53672;48.176;16.338;2023-04-06T08:05:15;9.45;;;4.63;;
66761;SDS011;53672;48.176;16.338;2023-04-06T08:10:16;10.63;;;4.13;;
66761;SDS011;53672;48.176;16.338;2023-04-06T08:15:17;10.50;;;4.20;;
66761;SDS011;53672;48.176;16.338;2023-04-06T08:20:18;8.20;;;4.13;;
66761;SDS011;53672;48.176;16.338;2023-04-06T08:25:19;7.43;;;3.77;;
66761;SDS011;53672;48.176;16.338;2023-04-06T08:30:20;8.20;;;3.75;;
66761;SDS011;53672;48.176;16.338;2023-04-06T08:35:20;10.67;;;3.77;;
66761;SDS011;53672;48.176;16.338;2023-04-06T08:40:22;7.53;;;3.60;;
66761;SDS011;53672;48.176;16.338;2023-04-06T08:45:23;6.40;;;3.95;;
66761;SDS011;53672;48.176;16.338;2023-04-06T08:50:23;7.60;;;3.97;;
66761;SDS011;53672;48.176;16.338;2023-04-06T08:55:26;7.25;;;3.85;;
66761;SDS011;53672;48.176;16.338;2023-04-06T09:00:27;8.10;;;4.07;;
66761;SDS011;53672;48.176;16.338;2023-04-06T09:05:28;7.35;;;4.53;;
66761;SDS011;53672;48.176;16.338;2023-04-06T09:10:30;6.87;;;4.90;;
66761;SDS011;53672;48.176;16.338;2023-04-06T09:15:32;7.20;;;4.70;;
66761;SDS011;53672;48.176;16.338;2023-04-06T09:20:33;7.30;;;5.07;;
66761;SDS011;53672;48.176;16.338;2023-04-06T09:25:34;7.70;;;4.90;;
66761;SDS011;53672;48.176;16.338;2023-04-06T09:30:35;8.50;;;4.40;;
66761;SDS011;53672;48.176;16.338;2023-04-06T09:35:35;7.13;;;4.43;;
66761;SDS011;53672;48.176;16.338;2023-04-06T09:40:37;8.05;;;4.32;;
66761;SDS011;53672;48.176;16.338;2023-04-06T09:45:47;6.40;;;3.92;;
66761;SDS011;53672;48.176;16.338;2023-04-06T09:50:49;6.13;;;4.03;;
66761;SDS011;53672;48.176;16.338;2023-04-06T09:55:55;6.60;;;3.20;;
66761;SDS011;53672;48.176;16.338;2023-04-06T10:01:02;5.88;;;3.28;;
66761;SDS011;53672;48.176;16.338;2023-04-06T10:06:10;7.35;;;3.10;;
66761;SDS011;53672;48.176;16.338;2023-04-06T10:11:12;4.85;;;2.90;;
66761;SDS011;53672;48.176;16.338;2023-04-06T10:16:14;5.60;;;3.10;;
66761;SDS011;53672;48.176;16.338;2023-04-06T10:21:16;7.53;;;3.80;;
66761;SDS011;53672;48.176;16.338;2023-04-06T10:26:21;5.90;;;3.70;;
66761;SDS011;53672;48.176;16.338;2023-04-06T10:31:25;5.38;;;2.95;;
66761;SDS011;53672;48.176;16.338;2023-04-06T10:36:27;5.47;;;3.40;;
66761;SDS011;53672;48.176;16.338;2023-04-06T10:41:33;6.80;;;3.83;;
66761;SDS011;53672;48.176;16.338;2023-04-06T10:46:34;5.07;;;3.33;;
66761;SDS011;53672;48.176;16.338;2023-04-06T10:51:37;5.30;;;3.30;;
66761;SDS011;53672;48.176;16.338;2023-04-06T10:56:39;6.70;;;4.03;;
66761;SDS011;53672;48.176;16.338;2023-04-06T11:01:39;5.37;;;3.30;;
66761;SDS011;53672;48.176;16.338;2023-04-06T11:06:46;5.05;;;3.50;;
66761;SDS011;53672;48.176;16.338;2023-04-06T11:11:48;6.93;;;3.80;;
66761;SDS011;53672;48.176;16.338;2023-04-06T11:16:49;6.70;;;3.70;;
66761;SDS011;53672;48.176;16.338;2023-04-06T11:21:50;8.02;;;3.80;;
66761;SDS011;53672;48.176;16.338;2023-04-06T11:26:53;5.93;;;3.50;;
66761;SDS011;53672;48.176;16.338;2023-04-06T11:31:57;6.20;;;3.50;;
66761;SDS011;53672;48.176;16.338;2023-04-06T11:36:59;6.40;;;3.20;;
66761;SDS011;53672;48.176;16.338;2023-04-06T11:42:02;6.00;;;3.40;;
66761;SDS011;53672;48.176;16.338;2023-04-06T11:47:03;5.80;;;3.08;;
66761;SDS011;53672;48.176;16.338;2023-04-06T11:52:14;4.95;;;3.08;;
66761;SDS011;53672;48.176;16.338;2023-04-06T11:57:16;5.57;;;2.90;;
66761;SDS011;53672;48.176;16.338;2023-04-06T12:02:18;4.93;;;3.03;;
66761;SDS011;53672;48.176;16.338;2023-04-06T12:07:18;5.70;;;3.30;;
66761;SDS011;53672;48.176;16.338;2023-04-06T12:12:20;5.23;;;3.30;;
66761;SDS011;53672;48.176;16.338;2023-04-06T12:17:21;6.22;;;3.55;;
66761;SDS011;53672;48.176;16.338;2023-04-06T12:22:21;5.70;;;2.97;;
66761;SDS011;53672;48.176;16.338;2023-04-06T12:27:23;5.80;;;3.17;;
66761;SDS011;53672;48.176;16.338;2023-04-06T12:32:24;6.30;;;3.10;;
66761;SDS011;53672;48.176;16.338;2023-04-06T12:37:24;6.17;;;3.37;;
66761;SDS011;53672;48.176;16.338;2023-04-06T12:42:26;6.83;;;3.00;;
66761;SDS011;53672;48.176;16.338;2023-04-06T12:47:27;6.07;;;3.42;;
66761;SDS011;53672;48.176;16.338;2023-04-06T12:52:27;5.20;;;2.97;;
66761;SDS011;53672;48.176;16.338;2023-04-06T12:57:29;4.67;;;2.77;;
66761;SDS011;53672;48.176;16.338;2023-04-06T13:02:30;6.63;;;3.20;;
66761;SDS011;53672;48.176;16.338;2023-04-06T13:07:30;5.20;;;2.80;;
66761;SDS011;53672;48.176;16.338;2023-04-06T13:12:32;6.43;;;3.30;;
66761;SDS011;53672;48.176;16.338;2023-04-06T13:17:33;5.57;;;2.83;;
66761;SDS011;53672;48.176;16.338;2023-04-06T13:22:33;7.67;;;3.00;;
66761;SDS011;53672;48.176;16.338;2023-04-06T13:27:35;7.83;;;3.37;;
66761;SDS011;53672;48.176;16.338;2023-04-06T13:32:35;6.25;;;2.97;;
66761;SDS011;53672;48.176;16.338;2023-04-06T13:37:36;6.20;;;3.33;;
66761;SDS011;53672;48.176;16.338;2023-04-06T13:42:38;4.90;;;2.80;;
66761;SDS011;53672;48.176;16.338;2023-04-06T13:47:38;5.63;;;2.97;;
66761;SDS011;53672;48.176;16.338;2023-04-06T13:52:39;5.68;;;3.20;;
66761;SDS011;53672;48.176;16.338;2023-04-06T13:57:41;5.80;;;3.13;;
66761;SDS011;53672;48.176;16.338;2023-04-06T14:02:41;5.67;;;2.93;;
66761;SDS011;53672;48.176;16.338;2023-04-06T14:07:42;6.28;;;3.00;;
66761;SDS011;53672;48.176;16.338;2023-04-06T14:12:44;5.72;;;3.13;;
66761;SDS011;53672;48.176;16.338;2023-04-06T14:17:44;6.43;;;3.30;;
66761;SDS011;53672;48.176;16.338;2023-04-06T14:22:45;7.43;;;3.67;;
66761;SDS011;53672;48.176;16.338;2023-04-06T14:27:47;6.78;;;3.97;;
66761;SDS011;53672;48.176;16.338;2023-04-06T14:32:47;7.05;;;3.90;;
66761;SDS011;53672;48.176;16.338;2023-04-06T14:37:47;4.97;;;3.07;;
66761;SDS011;53672;48.176;16.338;2023-04-06T14:42:49;7.07;;;3.50;;
66761;SDS011;53672;48.176;16.338;2023-04-06T14:47:50;6.40;;;3.63;;
66761;SDS011;53672;48.176;16.338;2023-04-06T14:52:50;6.97;;;3.73;;
66761;SDS011;53672;48.176;16.338;2023-04-06T14:57:52;7.13;;;3.67;;
66761;SDS011;53672;48.176;16.338;2023-04-06T15:02:53;6.82;;;3.40;;
66761;SDS011;53672;48.176;16.338;2023-04-06T15:07:53;6.33;;;3.47;;
66761;SDS011;53672;48.176;16.338;2023-04-06T15:12:55;6.20;;;3.93;;
66761;SDS011;53672;48.176;16.338;2023-04-06T15:17:55;6.72;;;3.97;;
66761;SDS011;53672;48.176;16.338;2023-04-06T15:22:56;6.47;;;3.80;;
66761;SDS011;53672;48.176;16.338;2023-04-06T15:27:58;7.07;;;3.92;;
66761;SDS011;53672;48.176;16.338;2023-04-06T15:32:59;6.47;;;3.67;;
66761;SDS011;53672;48.176;16.338;2023-04-06T15:38:00;6.93;;;3.90;;
66761;SDS011;53672;48.176;16.338;2023-04-06T15:43:03;7.93;;;4.38;;
66761;SDS011;53672;48.176;16.338;2023-04-06T15:48:04;7.60;;;4.07;;
66761;SDS011;53672;48.176;16.338;2023-04-06T15:53:04;6.93;;;3.95;;
66761;SDS011;53672;48.176;16.338;2023-04-06T15:58:06;8.40;;;4.32;;
66761;SDS011;53672;48.176;16.338;2023-04-06T16:03:07;7.50;;;4.17;;
66761;SDS011;53672;48.176;16.338;2023-04-06T16:08:07;8.93;;;4.20;;
66761;SDS011;53672;48.176;16.338;2023-04-06T16:13:09;5.73;;;4.07;;
66761;SDS011;53672;48.176;16.338;2023-04-06T16:18:09;8.07;;;4.20;;
66761;SDS011;53672;48.176;16.338;2023-04-06T16:23:10;10.37;;;4.50;;
66761;SDS011;53672;48.176;16.338;2023-04-06T16:28:12;7.23;;;4.27;;
66761;SDS011;53672;48.176;16.338;2023-04-06T16:33:12;7.25;;;4.63;;
66761;SDS011;53672;48.176;16.338;2023-04-06T16:38:13;7.60;;;4.40;;
66761;SDS011;53672;48.176;16.338;2023-04-06T16:43:16;8.55;;;4.60;;
66761;SDS011;53672;48.176;16.338;2023-04-06T16:48:16;8.60;;;4.57;;
66761;SDS011;53672;48.176;16.338;2023-04-06T16:53:17;8.43;;;4.80;;
66761;SDS011;53672;48.176;16.338;2023-04-06T16:58:18;7.77;;;4.67;;
66761;SDS011;53672;48.176;16.338;2023-04-06T17:03:19;8.57;;;4.93;;
66761;SDS011;53672;48.176;16.338;2023-04-06T17:08:19;7.97;;;4.77;;
66761;SDS011;53672;48.176;16.338;2023-04-06T17:13:21;10.43;;;4.77;;
66761;SDS011;53672;48.176;16.338;2023-04-06T17:18:22;7.88;;;4.90;;
66761;SDS011;53672;48.176;16.338;2023-04-06T17:23:22;11.70;;;5.80;;
66761;SDS011;53672;48.176;16.338;2023-04-06T17:28:24;8.80;;;5.20;;
66761;SDS011;53672;48.176;16.338;2023-04-06T17:33:25;8.18;;;5.00;;
66761;SDS011;53672;48.176;16.338;2023-04-06T17:38:25;8.93;;;5.50;;
66761;SDS011;53672;48.176;16.338;2023-04-06T17:43:27;8.53;;;5.23;;
66761;SDS011;53672;48.176;16.338;2023-04-06T17:48:28;9.48;;;5.57;;
66761;SDS011;53672;48.176;16.338;2023-04-06T17:53:28;9.48;;;5.80;;
66761;SDS011;53672;48.176;16.338;2023-04-06T17:58:30;9.43;;;5.40;;
66761;SDS011;53672;48.176;16.338;2023-04-06T18:03:30;10.63;;;5.93;;
66761;SDS011;53672;48.176;16.338;2023-04-06T18:08:31;13.70;;;7.60;;
66761;SDS011;53672;48.176;16.338;2023-04-06T18:13:33;12.48;;;6.60;;
66761;SDS011;53672;48.176;16.338;2023-04-06T18:18:33;11.20;;;6.80;;
66761;SDS011;53672;48.176;16.338;2023-04-06T18:23:34;11.13;;;6.90;;
66761;SDS011;53672;48.176;16.338;2023-04-06T18:28:36;11.55;;;7.60;;
66761;SDS011;53672;48.176;16.338;2023-04-06T18:33:36;14.88;;;6.88;;
66761;SDS011;53672;48.176;16.338;2023-04-06T18:38:37;10.43;;;6.70;;
66761;SDS011;53672;48.176;16.338;2023-04-06T18:43:42;11.48;;;7.07;;
66761;SDS011;53672;48.176;16.338;2023-04-06T18:48:43;11.03;;;6.80;;
66761;SDS011;53672;48.176;16.338;2023-04-06T18:53:44;9.88;;;6.82;;
66761;SDS011;53672;48.176;16.338;2023-04-06T18:58:46;11.20;;;6.83;;
66761;SDS011;53672;48.176;16.338;2023-04-06T19:03:47;12.40;;;7.07;;
66761;SDS011;53672;48.176;16.338;2023-04-06T19:08:47;10.23;;;6.00;;
66761;SDS011;53672;48.176;16.338;2023-04-06T19:13:49;9.97;;;6.37;;
66761;SDS011;53672;48.176;16.338;2023-04-06T19:18:50;10.40;;;6.50;;
66761;SDS011;53672;48.176;16.338;2023-04-06T19:23:51;9.93;;;6.27;;
66761;SDS011;53672;48.176;16.338;2023-04-06T19:28:54;10.63;;;6.15;;
66761;SDS011;53672;48.176;16.338;2023-04-06T19:33:54;10.70;;;6.73;;
66761;SDS011;53672;48.176;16.338;2023-04-06T19:38:55;11.10;;;6.60;;
66761;SDS011;53672;48.176;16.338;2023-04-06T19:43:57;11.73;;;6.43;;
66761;SDS011;53672;48.176;16.338;2023-04-06T19:48:58;10.47;;;6.50;;
66761;SDS011;53672;48.176;16.338;2023-04-06T19:53:59;11.27;;;6.13;;
66761;SDS011;53672;48.176;16.338;2023-04-06T19:59:01;9.73;;;5.70;;
66761;SDS011;53672;48.176;16.338;2023-04-06T20:04:01;10.20;;;5.80;;
66761;SDS011;53672;48.176;16.338;2023-04-06T20:09:05;8.90;;;5.30;;
66761;SDS011;53672;48.176;16.338;2023-04-06T20:14:07;8.75;;;5.80;;
66761;SDS011;53672;48.176;16.338;2023-04-06T20:19:08;9.45;;;5.93;;
66761;SDS011;53672;48.176;16.338;2023-04-06T20:24:08;9.23;;;5.70;;
66761;SDS011;53672;48.176;16.338;2023-04-06T20:29:10;8.90;;;5.60;;
66761;SDS011;53672;48.176;16.338;2023-04-06T20:34:11;8.60;;;5.47;;
66761;SDS011;53672;48.176;16.338;2023-04-06T20:39:11;8.27;;;5.20;;
66761;SDS011;53672;48.176;16.338;2023-04-06T20:44:13;9.75;;;5.50;;
66761;SDS011;53672;48.176;16.338;2023-04-06T20:49:14;10.00;;;5.20;;
66761;SDS011;53672;48.176;16.338;2023-04-06T20:54:14;9.20;;;5.50;;
66761;SDS011;53672;48.176;16.338;2023-04-06T20:59:16;10.50;;;5.73;;
66761;SDS011;53672;48.176;16.338;2023-04-06T21:04:16;9.43;;;5.43;;
66761;SDS011;53672;48.176;16.338;2023-04-06T21:09:17;11.43;;;6.07;;
66761;SDS011;53672;48.176;16.338;2023-04-06T21:14:19;10.07;;;6.17;;
66761;SDS011;53672;48.176;16.338;2023-04-06T21:19:19;10.05;;;5.93;;
66761;SDS011;53672;48.176;16.338;2023-04-06T21:24:20;9.50;;;5.70;;
66761;SDS011;53672;48.176;16.338;2023-04-06T21:29:22;10.27;;;6.13;;
66761;SDS011;53672;48.176;16.338;2023-04-06T21:34:23;12.27;;;6.38;;
66761;SDS011;53672;48.176;16.338;2023-04-06T21:39:23;8.90;;;5.13;;
66761;SDS011;53672;48.176;16.338;2023-04-06T21:44:25;11.20;;;6.17;;
66761;SDS011;53672;48.176;16.338;2023-04-06T21:49:25;11.63;;;6.13;;
66761;SDS011;53672;48.176;16.338;2023-04-06T21:54:30;9.73;;;5.97;;
66761;SDS011;53672;48.176;16.338;2023-04-06T21:59:32;11.05;;;6.13;;
66761;SDS011;53672;48.176;16.338;2023-04-06T22:04:33;10.20;;;5.87;;
66761;SDS011;53672;48.176;16.338;2023-04-06T22:09:33;10.13;;;5.97;;
66761;SDS011;53672;48.176;16.338;2023-04-06T22:14:35;9.83;;;6.13;;
66761;SDS011;53672;48.176;16.338;2023-04-06T22:19:36;10.50;;;5.55;;
66761;SDS011;53672;48.176;16.338;2023-04-06T22:24:36;12.43;;;5.90;;
66761;SDS011;53672;48.176;16.338;2023-04-06T22:29:38;11.80;;;5.87;;
66761;SDS011;53672;48.176;16.338;2023-04-06T22:34:38;11.95;;;6.07;;
66761;SDS011;53672;48.176;16.338;2023-04-06T22:39:39;10.60;;;6.07;;
66761;SDS011;53672;48.176;16.338;2023-04-06T22:44:41;11.70;;;6.07;;
66761;SDS011;53672;48.176;16.338;2023-04-06T22:49:41;10.25;;;5.72;;
66761;SDS011;53672;48.176;16.338;2023-04-06T22:54:42;12.53;;;6.63;;
66761;SDS011;53672;48.176;16.338;2023-04-06T22:59:44;12.13;;;6.80;;
66761;SDS011;53672;48.176;16.338;2023-04-06T23:04:44;15.33;;;6.57;;
66761;SDS011;53672;48.176;16.338;2023-04-06T23:09:45;12.20;;;6.28;;
66761;SDS011;53672;48.176;16.338;2023-04-06T23:14:46;11.90;;;6.22;;
66761;SDS011;53672;48.176;16.338;2023-04-06T23:19:47;11.10;;;6.13;;
66761;SDS011;53672;48.176;16.338;2023-04-06T23:24:47;13.57;;;6.87;;
66761;SDS011;53672;48.176;16.338;2023-04-06T23:29:50;12.70;;;6.70;;
66761;SDS011;53672;48.176;16.338;2023-04-06T23:34:50;12.65;;;7.10;;
66761;SDS011;53672;48.176;16.338;2023-04-06T23:39:51;14.32;;;7.72;;
66761;SDS011;53672;48.176;16.338;2023-04-06T23:44:53;13.77;;;7.03;;
66761;SDS011;53672;48.176;16.338;2023-04-06T23:49:54;12.87;;;6.97;;
66761;SDS011;53672;48.176;16.338;2023-04-06T23:54:54;13.73;;;7.13;;
66761;SDS011;53672;48.176;16.338;2023-04-06T23:59:56;15.20;;;7.90;;
